sensor_id;sensor_type;location;lat;lon;timestamp;P1;durP1;ratioP1;P2;durP2;ratioP2
22715;SDS011;11525;51.152;4.456;2022-09-13T00:00:45;10.63;;;5.40;;
22715;SDS011;11525;51.152;4.456;2022-09-13T00:03:14;9.43;;;5.32;;
22715;SDS011;11525;51.152;4.456;2022-09-13T00:05:40;8.20;;;4.80;;
22715;SDS011;11525;51.152;4.456;2022-09-13T00:08:06;6.95;;;5.25;;
22715;SDS011;11525;51.152;4.456;2022-09-13T00:10:33;6.90;;;5.35;;
22715;SDS011;11525;51.152;4.456;2022-09-13T00:13:00;8.93;;;4.88;;
22715;SDS011;11525;51.152;4.456;2022-09-13T00:15:26;9.13;;;5.05;;
22715;SDS011;11525;51.152;4.456;2022-09-13T00:17:52;9.88;;;4.93;;
22715;SDS011;11525;51.152;4.456;2022-09-13T00:20:18;6.72;;;5.50;;
22715;SDS011;11525;51.152;4.456;2022-09-13T00:22:44;10.40;;;4.57;;
22715;SDS011;11525;51.152;4.456;2022-09-13T00:25:09;7.57;;;5.00;;
22715;SDS011;11525;51.152;4.456;2022-09-13T00:27:36;9.07;;;4.68;;
22715;SDS011;11525;51.152;4.456;2022-09-13T00:30:03;8.93;;;4.65;;
22715;SDS011;11525;51.152;4.456;2022-09-13T00:32:32;4.60;;;4.15;;
22715;SDS011;11525;51.152;4.456;2022-09-13T00:35:00;8.18;;;4.40;;
22715;SDS011;11525;51.152;4.456;2022-09-13T00:37:27;9.98;;;4.47;;
22715;SDS011;11525;51.152;4.456;2022-09-13T00:39:53;6.65;;;4.60;;
22715;SDS011;11525;51.152;4.456;2022-09-13T00:42:23;4.93;;;4.03;;
22715;SDS011;11525;51.152;4.456;2022-09-13T00:44:57;10.60;;;4.55;;
22715;SDS011;11525;51.152;4.456;2022-09-13T00:50:01;6.85;;;3.92;;
22715;SDS011;11525;51.152;4.456;2022-09-13T00:52:42;5.45;;;4.18;;
22715;SDS011;11525;51.152;4.456;2022-09-13T00:55:19;5.60;;;4.22;;
22715;SDS011;11525;51.152;4.456;2022-09-13T00:57:51;4.03;;;3.60;;
22715;SDS011;11525;51.152;4.456;2022-09-13T01:00:21;13.18;;;4.78;;
22715;SDS011;11525;51.152;4.456;2022-09-13T01:02:51;6.70;;;3.80;;
22715;SDS011;11525;51.152;4.456;2022-09-13T01:05:22;8.27;;;4.38;;
22715;SDS011;11525;51.152;4.456;2022-09-13T01:07:52;5.28;;;3.92;;
22715;SDS011;11525;51.152;4.456;2022-09-13T01:10:19;5.80;;;3.55;;
22715;SDS011;11525;51.152;4.456;2022-09-13T01:15:17;5.82;;;4.13;;
22715;SDS011;11525;51.152;4.456;2022-09-13T01:17:43;7.07;;;4.07;;
22715;SDS011;11525;51.152;4.456;2022-09-13T01:20:09;8.98;;;4.05;;
22715;SDS011;11525;51.152;4.456;2022-09-13T01:30:44;7.38;;;3.97;;
22715;SDS011;11525;51.152;4.456;2022-09-13T01:33:33;7.10;;;3.60;;
22715;SDS011;11525;51.152;4.456;2022-09-13T01:39:16;5.07;;;3.08;;
22715;SDS011;11525;51.152;4.456;2022-09-13T01:50:46;4.28;;;3.67;;
22715;SDS011;11525;51.152;4.456;2022-09-13T01:56:17;8.88;;;4.72;;
22715;SDS011;11525;51.152;4.456;2022-09-13T01:58:58;6.47;;;4.00;;
22715;SDS011;11525;51.152;4.456;2022-09-13T02:01:31;5.95;;;3.63;;
22715;SDS011;11525;51.152;4.456;2022-09-13T02:04:12;5.03;;;3.90;;
22715;SDS011;11525;51.152;4.456;2022-09-13T02:09:21;4.40;;;3.60;;
22715;SDS011;11525;51.152;4.456;2022-09-13T02:11:51;4.32;;;3.78;;
22715;SDS011;11525;51.152;4.456;2022-09-13T02:14:25;8.55;;;4.30;;
22715;SDS011;11525;51.152;4.456;2022-09-13T02:16:56;9.13;;;4.45;;
22715;SDS011;11525;51.152;4.456;2022-09-13T02:19:39;7.28;;;3.92;;
22715;SDS011;11525;51.152;4.456;2022-09-13T02:22:12;5.78;;;4.50;;
22715;SDS011;11525;51.152;4.456;2022-09-13T02:24:44;4.95;;;3.60;;
22715;SDS011;11525;51.152;4.456;2022-09-13T02:27:18;11.40;;;4.38;;
22715;SDS011;11525;51.152;4.456;2022-09-13T02:29:47;10.13;;;4.50;;
22715;SDS011;11525;51.152;4.456;2022-09-13T02:32:21;6.60;;;4.30;;
22715;SDS011;11525;51.152;4.456;2022-09-13T02:34:55;9.05;;;4.22;;
22715;SDS011;11525;51.152;4.456;2022-09-13T02:37:28;5.18;;;4.00;;
22715;SDS011;11525;51.152;4.456;2022-09-13T02:40:03;8.32;;;3.80;;
22715;SDS011;11525;51.152;4.456;2022-09-13T02:42:40;5.85;;;3.70;;
22715;SDS011;11525;51.152;4.456;2022-09-13T02:45:09;6.30;;;3.83;;
22715;SDS011;11525;51.152;4.456;2022-09-13T02:52:48;7.93;;;4.50;;
22715;SDS011;11525;51.152;4.456;2022-09-13T02:58:13;6.53;;;4.00;;
22715;SDS011;11525;51.152;4.456;2022-09-13T03:01:01;6.53;;;4.10;;
22715;SDS011;11525;51.152;4.456;2022-09-13T03:03:27;6.38;;;3.83;;
22715;SDS011;11525;51.152;4.456;2022-09-13T03:05:53;4.95;;;4.20;;
22715;SDS011;11525;51.152;4.456;2022-09-13T03:08:19;5.88;;;3.95;;
22715;SDS011;11525;51.152;4.456;2022-09-13T03:10:55;5.65;;;4.10;;
22715;SDS011;11525;51.152;4.456;2022-09-13T03:13:48;7.63;;;4.30;;
22715;SDS011;11525;51.152;4.456;2022-09-13T03:24:58;6.65;;;4.43;;
22715;SDS011;11525;51.152;4.456;2022-09-13T03:30:03;9.10;;;4.95;;
22715;SDS011;11525;51.152;4.456;2022-09-13T03:38:14;9.55;;;4.05;;
22715;SDS011;11525;51.152;4.456;2022-09-13T03:43:30;6.15;;;3.75;;
22715;SDS011;11525;51.152;4.456;2022-09-13T03:46:24;8.88;;;4.78;;
22715;SDS011;11525;51.152;4.456;2022-09-13T03:48:53;8.57;;;4.13;;
22715;SDS011;11525;51.152;4.456;2022-09-13T03:51:21;9.10;;;4.60;;
22715;SDS011;11525;51.152;4.456;2022-09-13T03:53:54;7.45;;;4.22;;
22715;SDS011;11525;51.152;4.456;2022-09-13T03:56:25;8.98;;;4.30;;
22715;SDS011;11525;51.152;4.456;2022-09-13T03:58:51;7.10;;;4.47;;
22715;SDS011;11525;51.152;4.456;2022-09-13T04:01:18;9.52;;;4.80;;
22715;SDS011;11525;51.152;4.456;2022-09-13T04:03:46;6.93;;;4.82;;
22715;SDS011;11525;51.152;4.456;2022-09-13T04:06:12;4.55;;;3.65;;
22715;SDS011;11525;51.152;4.456;2022-09-13T04:08:38;6.15;;;3.90;;
22715;SDS011;11525;51.152;4.456;2022-09-13T04:11:04;13.02;;;5.13;;
22715;SDS011;11525;51.152;4.456;2022-09-13T04:13:30;8.38;;;4.60;;
22715;SDS011;11525;51.152;4.456;2022-09-13T04:16:02;7.55;;;4.00;;
22715;SDS011;11525;51.152;4.456;2022-09-13T04:18:29;9.05;;;4.32;;
22715;SDS011;11525;51.152;4.456;2022-09-13T04:20:56;7.70;;;4.25;;
22715;SDS011;11525;51.152;4.456;2022-09-13T04:23:23;5.22;;;4.35;;
22715;SDS011;11525;51.152;4.456;2022-09-13T04:25:50;7.35;;;4.15;;
22715;SDS011;11525;51.152;4.456;2022-09-13T04:28:16;14.32;;;4.45;;
22715;SDS011;11525;51.152;4.456;2022-09-13T04:30:43;12.10;;;4.60;;
22715;SDS011;11525;51.152;4.456;2022-09-13T04:33:10;6.53;;;4.30;;
22715;SDS011;11525;51.152;4.456;2022-09-13T04:35:36;6.93;;;3.92;;
22715;SDS011;11525;51.152;4.456;2022-09-13T04:38:04;8.05;;;4.70;;
22715;SDS011;11525;51.152;4.456;2022-09-13T04:40:31;6.50;;;4.40;;
22715;SDS011;11525;51.152;4.456;2022-09-13T04:42:59;9.38;;;4.15;;
22715;SDS011;11525;51.152;4.456;2022-09-13T04:45:25;8.98;;;4.38;;
22715;SDS011;11525;51.152;4.456;2022-09-13T04:47:52;7.05;;;4.07;;
22715;SDS011;11525;51.152;4.456;2022-09-13T04:50:19;5.05;;;4.32;;
22715;SDS011;11525;51.152;4.456;2022-09-13T04:52:46;10.05;;;5.07;;
22715;SDS011;11525;51.152;4.456;2022-09-13T04:55:12;8.07;;;3.83;;
22715;SDS011;11525;51.152;4.456;2022-09-13T04:57:38;5.03;;;4.03;;
22715;SDS011;11525;51.152;4.456;2022-09-13T05:00:04;9.25;;;4.72;;
22715;SDS011;11525;51.152;4.456;2022-09-13T05:02:31;7.97;;;4.68;;
22715;SDS011;11525;51.152;4.456;2022-09-13T05:04:57;10.70;;;4.90;;
22715;SDS011;11525;51.152;4.456;2022-09-13T05:07:23;5.88;;;4.15;;
22715;SDS011;11525;51.152;4.456;2022-09-13T05:09:48;7.68;;;4.40;;
22715;SDS011;11525;51.152;4.456;2022-09-13T05:12:14;5.72;;;4.70;;
22715;SDS011;11525;51.152;4.456;2022-09-13T05:14:40;7.18;;;4.30;;
22715;SDS011;11525;51.152;4.456;2022-09-13T05:17:05;8.23;;;3.88;;
22715;SDS011;11525;51.152;4.456;2022-09-13T05:19:31;11.10;;;5.18;;
22715;SDS011;11525;51.152;4.456;2022-09-13T05:21:57;7.25;;;4.40;;
22715;SDS011;11525;51.152;4.456;2022-09-13T05:24:22;4.68;;;3.90;;
22715;SDS011;11525;51.152;4.456;2022-09-13T05:26:48;9.57;;;4.25;;
22715;SDS011;11525;51.152;4.456;2022-09-13T05:29:14;5.55;;;4.05;;
22715;SDS011;11525;51.152;4.456;2022-09-13T05:31:40;6.00;;;4.18;;
22715;SDS011;11525;51.152;4.456;2022-09-13T05:34:07;6.32;;;4.47;;
22715;SDS011;11525;51.152;4.456;2022-09-13T05:36:38;8.95;;;4.25;;
22715;SDS011;11525;51.152;4.456;2022-09-13T05:39:06;7.57;;;4.13;;
22715;SDS011;11525;51.152;4.456;2022-09-13T05:41:36;6.88;;;4.07;;
22715;SDS011;11525;51.152;4.456;2022-09-13T05:44:15;11.90;;;4.50;;
22715;SDS011;11525;51.152;4.456;2022-09-13T05:46:41;7.75;;;3.95;;
22715;SDS011;11525;51.152;4.456;2022-09-13T05:49:10;5.72;;;3.90;;
22715;SDS011;11525;51.152;4.456;2022-09-13T05:51:37;12.85;;;4.95;;
22715;SDS011;11525;51.152;4.456;2022-09-13T05:54:03;13.98;;;5.10;;
22715;SDS011;11525;51.152;4.456;2022-09-13T05:56:29;10.65;;;5.47;;
22715;SDS011;11525;51.152;4.456;2022-09-13T05:58:56;10.43;;;5.22;;
22715;SDS011;11525;51.152;4.456;2022-09-13T06:01:23;12.23;;;5.00;;
22715;SDS011;11525;51.152;4.456;2022-09-13T06:03:52;7.28;;;5.20;;
22715;SDS011;11525;51.152;4.456;2022-09-13T06:06:19;6.10;;;4.60;;
22715;SDS011;11525;51.152;4.456;2022-09-13T06:08:46;8.48;;;4.40;;
22715;SDS011;11525;51.152;4.456;2022-09-13T06:11:12;8.18;;;4.22;;
22715;SDS011;11525;51.152;4.456;2022-09-13T06:13:39;7.70;;;4.15;;
22715;SDS011;11525;51.152;4.456;2022-09-13T06:16:08;11.55;;;4.93;;
22715;SDS011;11525;51.152;4.456;2022-09-13T06:18:35;15.40;;;5.25;;
22715;SDS011;11525;51.152;4.456;2022-09-13T06:21:08;8.23;;;4.22;;
22715;SDS011;11525;51.152;4.456;2022-09-13T06:23:36;7.80;;;4.50;;
22715;SDS011;11525;51.152;4.456;2022-09-13T06:26:10;13.25;;;5.07;;
22715;SDS011;11525;51.152;4.456;2022-09-13T06:28:38;6.80;;;4.55;;
22715;SDS011;11525;51.152;4.456;2022-09-13T06:31:11;14.20;;;5.40;;
22715;SDS011;11525;51.152;4.456;2022-09-13T06:33:39;11.70;;;5.15;;
22715;SDS011;11525;51.152;4.456;2022-09-13T06:36:07;7.43;;;4.25;;
22715;SDS011;11525;51.152;4.456;2022-09-13T06:38:34;7.05;;;4.30;;
22715;SDS011;11525;51.152;4.456;2022-09-13T06:43:31;11.00;;;5.43;;
22715;SDS011;11525;51.152;4.456;2022-09-13T06:45:58;8.32;;;5.18;;
22715;SDS011;11525;51.152;4.456;2022-09-13T06:48:25;15.15;;;4.93;;
22715;SDS011;11525;51.152;4.456;2022-09-13T06:50:52;9.98;;;5.25;;
22715;SDS011;11525;51.152;4.456;2022-09-13T06:53:21;10.68;;;4.55;;
22715;SDS011;11525;51.152;4.456;2022-09-13T06:55:47;9.77;;;5.22;;
22715;SDS011;11525;51.152;4.456;2022-09-13T06:58:13;9.38;;;4.43;;
22715;SDS011;11525;51.152;4.456;2022-09-13T07:00:39;8.13;;;4.80;;
22715;SDS011;11525;51.152;4.456;2022-09-13T07:03:05;8.98;;;4.20;;
22715;SDS011;11525;51.152;4.456;2022-09-13T07:05:31;10.88;;;5.10;;
22715;SDS011;11525;51.152;4.456;2022-09-13T07:07:57;9.77;;;4.72;;
22715;SDS011;11525;51.152;4.456;2022-09-13T07:10:26;9.85;;;5.25;;
22715;SDS011;11525;51.152;4.456;2022-09-13T07:12:52;11.10;;;4.13;;
22715;SDS011;11525;51.152;4.456;2022-09-13T07:15:18;10.13;;;4.53;;
22715;SDS011;11525;51.152;4.456;2022-09-13T07:17:44;12.15;;;5.65;;
22715;SDS011;11525;51.152;4.456;2022-09-13T07:20:09;7.78;;;4.35;;
22715;SDS011;11525;51.152;4.456;2022-09-13T07:22:35;9.98;;;5.43;;
22715;SDS011;11525;51.152;4.456;2022-09-13T07:25:01;9.88;;;5.45;;
22715;SDS011;11525;51.152;4.456;2022-09-13T07:27:27;7.25;;;5.30;;
22715;SDS011;11525;51.152;4.456;2022-09-13T07:29:53;8.20;;;5.03;;
22715;SDS011;11525;51.152;4.456;2022-09-13T07:32:19;14.30;;;6.07;;
22715;SDS011;11525;51.152;4.456;2022-09-13T07:34:45;10.13;;;6.30;;
22715;SDS011;11525;51.152;4.456;2022-09-13T07:37:13;8.70;;;5.60;;
22715;SDS011;11525;51.152;4.456;2022-09-13T07:39:39;9.15;;;6.10;;
22715;SDS011;11525;51.152;4.456;2022-09-13T07:42:05;9.02;;;7.22;;
22715;SDS011;11525;51.152;4.456;2022-09-13T07:44:31;14.30;;;7.70;;
22715;SDS011;11525;51.152;4.456;2022-09-13T07:46:56;9.27;;;6.63;;
22715;SDS011;11525;51.152;4.456;2022-09-13T07:49:22;11.25;;;6.85;;
22715;SDS011;11525;51.152;4.456;2022-09-13T07:51:48;12.95;;;6.57;;
22715;SDS011;11525;51.152;4.456;2022-09-13T07:54:15;10.18;;;6.90;;
22715;SDS011;11525;51.152;4.456;2022-09-13T07:56:42;11.50;;;7.05;;
22715;SDS011;11525;51.152;4.456;2022-09-13T07:59:13;12.27;;;7.38;;
22715;SDS011;11525;51.152;4.456;2022-09-13T08:01:41;8.90;;;6.97;;
22715;SDS011;11525;51.152;4.456;2022-09-13T08:04:09;9.40;;;7.28;;
22715;SDS011;11525;51.152;4.456;2022-09-13T08:06:39;9.07;;;6.75;;
22715;SDS011;11525;51.152;4.456;2022-09-13T08:09:07;8.50;;;6.88;;
22715;SDS011;11525;51.152;4.456;2022-09-13T08:11:35;9.07;;;7.28;;
22715;SDS011;11525;51.152;4.456;2022-09-13T08:14:03;12.00;;;7.60;;
22715;SDS011;11525;51.152;4.456;2022-09-13T08:16:30;13.57;;;8.30;;
22715;SDS011;11525;51.152;4.456;2022-09-13T08:18:59;13.35;;;8.63;;
22715;SDS011;11525;51.152;4.456;2022-09-13T08:21:26;12.20;;;8.32;;
22715;SDS011;11525;51.152;4.456;2022-09-13T08:23:57;18.35;;;10.02;;
22715;SDS011;11525;51.152;4.456;2022-09-13T08:26:27;11.10;;;8.80;;
22715;SDS011;11525;51.152;4.456;2022-09-13T08:28:55;13.07;;;7.47;;
22715;SDS011;11525;51.152;4.456;2022-09-13T08:31:23;10.10;;;6.78;;
22715;SDS011;11525;51.152;4.456;2022-09-13T08:33:50;13.05;;;6.72;;
22715;SDS011;11525;51.152;4.456;2022-09-13T08:36:16;14.32;;;6.22;;
22715;SDS011;11525;51.152;4.456;2022-09-13T08:38:49;9.82;;;5.43;;
22715;SDS011;11525;51.152;4.456;2022-09-13T08:41:23;13.55;;;7.03;;
22715;SDS011;11525;51.152;4.456;2022-09-13T08:43:59;10.80;;;7.13;;
22715;SDS011;11525;51.152;4.456;2022-09-13T08:46:36;12.18;;;5.68;;
22715;SDS011;11525;51.152;4.456;2022-09-13T08:49:10;10.27;;;6.35;;
22715;SDS011;11525;51.152;4.456;2022-09-13T08:52:20;10.23;;;5.15;;
22715;SDS011;11525;51.152;4.456;2022-09-13T08:55:01;8.95;;;5.95;;
22715;SDS011;11525;51.152;4.456;2022-09-13T08:57:47;11.02;;;5.88;;
22715;SDS011;11525;51.152;4.456;2022-09-13T09:00:26;9.15;;;5.95;;
22715;SDS011;11525;51.152;4.456;2022-09-13T09:03:13;10.73;;;5.60;;
22715;SDS011;11525;51.152;4.456;2022-09-13T09:05:49;10.07;;;4.93;;
22715;SDS011;11525;51.152;4.456;2022-09-13T09:08:34;6.05;;;4.78;;
22715;SDS011;11525;51.152;4.456;2022-09-13T09:11:14;12.73;;;5.63;;
22715;SDS011;11525;51.152;4.456;2022-09-13T09:16:50;10.75;;;5.80;;
22715;SDS011;11525;51.152;4.456;2022-09-13T09:19:22;9.02;;;5.47;;
22715;SDS011;11525;51.152;4.456;2022-09-13T09:22:14;11.48;;;5.88;;
22715;SDS011;11525;51.152;4.456;2022-09-13T09:24:43;12.45;;;6.68;;
22715;SDS011;11525;51.152;4.456;2022-09-13T09:27:15;6.95;;;5.55;;
22715;SDS011;11525;51.152;4.456;2022-09-13T09:29:42;11.13;;;5.38;;
22715;SDS011;11525;51.152;4.456;2022-09-13T09:37:54;7.43;;;5.22;;
22715;SDS011;11525;51.152;4.456;2022-09-13T09:40:37;11.27;;;6.25;;
22715;SDS011;11525;51.152;4.456;2022-09-13T09:43:17;10.02;;;5.78;;
22715;SDS011;11525;51.152;4.456;2022-09-13T09:45:49;14.15;;;7.28;;
22715;SDS011;11525;51.152;4.456;2022-09-13T09:48:19;10.43;;;7.00;;
22715;SDS011;11525;51.152;4.456;2022-09-13T09:50:52;8.95;;;5.72;;
22715;SDS011;11525;51.152;4.456;2022-09-13T09:55:59;10.70;;;6.07;;
22715;SDS011;11525;51.152;4.456;2022-09-13T09:58:41;5.78;;;4.03;;
22715;SDS011;11525;51.152;4.456;2022-09-13T10:01:30;9.27;;;5.57;;
22715;SDS011;11525;51.152;4.456;2022-09-13T10:04:15;9.55;;;5.25;;
22715;SDS011;11525;51.152;4.456;2022-09-13T10:06:46;9.95;;;4.85;;
22715;SDS011;11525;51.152;4.456;2022-09-13T10:11:51;10.45;;;5.15;;
22715;SDS011;11525;51.152;4.456;2022-09-13T10:17:24;5.55;;;4.70;;
22715;SDS011;11525;51.152;4.456;2022-09-13T10:22:39;7.57;;;4.55;;
22715;SDS011;11525;51.152;4.456;2022-09-13T10:25:12;5.00;;;4.10;;
22715;SDS011;11525;51.152;4.456;2022-09-13T10:27:49;7.30;;;3.80;;
22715;SDS011;11525;51.152;4.456;2022-09-13T10:32:55;5.68;;;3.28;;
22715;SDS011;11525;51.152;4.456;2022-09-13T10:35:31;5.95;;;3.40;;
22715;SDS011;11525;51.152;4.456;2022-09-13T10:37:58;8.38;;;3.58;;
22715;SDS011;11525;51.152;4.456;2022-09-13T10:40:28;7.32;;;3.63;;
22715;SDS011;11525;51.152;4.456;2022-09-13T10:42:56;4.80;;;2.75;;
22715;SDS011;11525;51.152;4.456;2022-09-13T10:45:27;9.10;;;3.30;;
22715;SDS011;11525;51.152;4.456;2022-09-13T10:48:05;4.30;;;3.10;;
22715;SDS011;11525;51.152;4.456;2022-09-13T10:50:39;4.70;;;3.80;;
22715;SDS011;11525;51.152;4.456;2022-09-13T10:53:25;5.25;;;3.13;;
22715;SDS011;11525;51.152;4.456;2022-09-13T10:55:55;6.05;;;2.90;;
22715;SDS011;11525;51.152;4.456;2022-09-13T10:58:21;7.13;;;3.33;;
22715;SDS011;11525;51.152;4.456;2022-09-13T11:14:44;7.25;;;3.70;;
22715;SDS011;11525;51.152;4.456;2022-09-13T11:17:21;8.43;;;4.30;;
22715;SDS011;11525;51.152;4.456;2022-09-13T11:25:40;4.70;;;3.05;;
22715;SDS011;11525;51.152;4.456;2022-09-13T11:28:40;5.93;;;3.80;;
22715;SDS011;11525;51.152;4.456;2022-09-13T11:34:31;4.85;;;3.25;;
22715;SDS011;11525;51.152;4.456;2022-09-13T11:46:02;7.28;;;4.75;;
22715;SDS011;11525;51.152;4.456;2022-09-13T11:51:14;8.15;;;4.75;;
22715;SDS011;11525;51.152;4.456;2022-09-13T11:56:48;5.05;;;4.05;;
22715;SDS011;11525;51.152;4.456;2022-09-13T12:02:51;7.80;;;5.15;;
22715;SDS011;11525;51.152;4.456;2022-09-13T12:05:31;7.63;;;4.30;;
22715;SDS011;11525;51.152;4.456;2022-09-13T12:08:29;9.48;;;4.18;;
22715;SDS011;11525;51.152;4.456;2022-09-13T12:11:08;6.50;;;5.30;;
22715;SDS011;11525;51.152;4.456;2022-09-13T12:16:21;7.60;;;5.32;;
22715;SDS011;11525;51.152;4.456;2022-09-13T12:18:50;10.77;;;6.18;;
22715;SDS011;11525;51.152;4.456;2022-09-13T12:21:21;6.75;;;5.25;;
22715;SDS011;11525;51.152;4.456;2022-09-13T12:24:01;5.72;;;3.92;;
22715;SDS011;11525;51.152;4.456;2022-09-13T12:32:01;7.78;;;3.97;;
22715;SDS011;11525;51.152;4.456;2022-09-13T12:50:57;14.30;;;7.72;;
22715;SDS011;11525;51.152;4.456;2022-09-13T12:58:58;9.57;;;7.20;;
22715;SDS011;11525;51.152;4.456;2022-09-13T13:01:46;12.40;;;6.28;;
22715;SDS011;11525;51.152;4.456;2022-09-13T13:04:15;7.03;;;5.53;;
22715;SDS011;11525;51.152;4.456;2022-09-13T13:06:49;13.57;;;6.47;;
22715;SDS011;11525;51.152;4.456;2022-09-13T13:12:10;12.68;;;8.70;;
22715;SDS011;11525;51.152;4.456;2022-09-13T13:14:49;11.15;;;8.57;;
22715;SDS011;11525;51.152;4.456;2022-09-13T13:36:44;13.45;;;8.65;;
22715;SDS011;11525;51.152;4.456;2022-09-13T13:41:57;12.43;;;8.95;;
22715;SDS011;11525;51.152;4.456;2022-09-13T13:49:52;15.57;;;9.23;;
22715;SDS011;11525;51.152;4.456;2022-09-13T14:00:54;11.32;;;6.70;;
22715;SDS011;11525;51.152;4.456;2022-09-13T14:08:50;13.75;;;11.07;;
22715;SDS011;11525;51.152;4.456;2022-09-13T14:19:45;12.77;;;10.00;;
22715;SDS011;11525;51.152;4.456;2022-09-13T14:22:18;19.52;;;11.48;;
22715;SDS011;11525;51.152;4.456;2022-09-13T14:24:57;13.43;;;9.23;;
22715;SDS011;11525;51.152;4.456;2022-09-13T14:27:38;13.88;;;8.98;;
22715;SDS011;11525;51.152;4.456;2022-09-13T14:30:21;12.52;;;8.13;;
22715;SDS011;11525;51.152;4.456;2022-09-13T14:32:52;11.07;;;8.68;;
22715;SDS011;11525;51.152;4.456;2022-09-13T14:35:24;10.82;;;7.05;;
22715;SDS011;11525;51.152;4.456;2022-09-13T14:37:53;11.50;;;8.00;;
22715;SDS011;11525;51.152;4.456;2022-09-13T14:42:50;11.38;;;8.43;;
22715;SDS011;11525;51.152;4.456;2022-09-13T14:45:25;12.02;;;7.65;;
22715;SDS011;11525;51.152;4.456;2022-09-13T14:48:08;13.68;;;9.23;;
22715;SDS011;11525;51.152;4.456;2022-09-13T14:51:01;14.68;;;10.25;;
22715;SDS011;11525;51.152;4.456;2022-09-13T14:53:38;11.68;;;9.80;;
22715;SDS011;11525;51.152;4.456;2022-09-13T14:56:07;12.20;;;9.73;;
22715;SDS011;11525;51.152;4.456;2022-09-13T14:58:44;12.95;;;9.63;;
22715;SDS011;11525;51.152;4.456;2022-09-13T15:01:18;17.67;;;11.18;;
22715;SDS011;11525;51.152;4.456;2022-09-13T15:03:57;13.98;;;10.45;;
22715;SDS011;11525;51.152;4.456;2022-09-13T15:06:28;13.60;;;10.75;;
22715;SDS011;11525;51.152;4.456;2022-09-13T15:08:59;15.80;;;12.38;;
22715;SDS011;11525;51.152;4.456;2022-09-13T15:17:09;18.98;;;12.55;;
22715;SDS011;11525;51.152;4.456;2022-09-13T15:19:40;18.27;;;11.00;;
22715;SDS011;11525;51.152;4.456;2022-09-13T15:22:18;15.45;;;10.35;;
22715;SDS011;11525;51.152;4.456;2022-09-13T15:24:52;16.23;;;11.65;;
22715;SDS011;11525;51.152;4.456;2022-09-13T15:27:28;15.82;;;12.02;;
22715;SDS011;11525;51.152;4.456;2022-09-13T15:30:22;17.45;;;13.40;;
22715;SDS011;11525;51.152;4.456;2022-09-13T15:35:40;16.10;;;11.82;;
22715;SDS011;11525;51.152;4.456;2022-09-13T15:38:26;18.30;;;14.55;;
22715;SDS011;11525;51.152;4.456;2022-09-13T15:41:11;16.55;;;12.02;;
22715;SDS011;11525;51.152;4.456;2022-09-13T15:43:42;17.23;;;14.05;;
22715;SDS011;11525;51.152;4.456;2022-09-13T15:46:10;25.50;;;15.18;;
22715;SDS011;11525;51.152;4.456;2022-09-13T15:48:39;18.88;;;14.10;;
22715;SDS011;11525;51.152;4.456;2022-09-13T15:51:14;22.52;;;15.80;;
22715;SDS011;11525;51.152;4.456;2022-09-13T15:53:43;22.20;;;15.60;;
22715;SDS011;11525;51.152;4.456;2022-09-13T15:56:15;19.48;;;13.90;;
22715;SDS011;11525;51.152;4.456;2022-09-13T15:59:14;21.77;;;15.18;;
22715;SDS011;11525;51.152;4.456;2022-09-13T16:01:41;20.75;;;13.85;;
22715;SDS011;11525;51.152;4.456;2022-09-13T16:04:08;23.02;;;16.67;;
22715;SDS011;11525;51.152;4.456;2022-09-13T16:06:35;21.10;;;15.95;;
22715;SDS011;11525;51.152;4.456;2022-09-13T16:09:01;24.05;;;17.58;;
22715;SDS011;11525;51.152;4.456;2022-09-13T16:11:42;25.25;;;16.92;;
22715;SDS011;11525;51.152;4.456;2022-09-13T16:14:08;24.23;;;18.30;;
22715;SDS011;11525;51.152;4.456;2022-09-13T16:16:34;22.55;;;16.13;;
22715;SDS011;11525;51.152;4.456;2022-09-13T16:18:59;16.92;;;15.15;;
22715;SDS011;11525;51.152;4.456;2022-09-13T16:21:25;25.48;;;17.30;;
22715;SDS011;11525;51.152;4.456;2022-09-13T16:23:53;21.60;;;15.57;;
22715;SDS011;11525;51.152;4.456;2022-09-13T16:26:19;19.05;;;15.65;;
22715;SDS011;11525;51.152;4.456;2022-09-13T16:28:45;22.38;;;17.55;;
22715;SDS011;11525;51.152;4.456;2022-09-13T16:31:11;17.65;;;13.43;;
22715;SDS011;11525;51.152;4.456;2022-09-13T16:33:40;19.73;;;14.65;;
22715;SDS011;11525;51.152;4.456;2022-09-13T16:36:07;18.23;;;14.52;;
22715;SDS011;11525;51.152;4.456;2022-09-13T16:38:36;20.83;;;14.20;;
22715;SDS011;11525;51.152;4.456;2022-09-13T16:41:06;13.85;;;12.48;;
22715;SDS011;11525;51.152;4.456;2022-09-13T16:43:32;22.45;;;15.23;;
22715;SDS011;11525;51.152;4.456;2022-09-13T16:45:59;15.93;;;14.07;;
22715;SDS011;11525;51.152;4.456;2022-09-13T16:48:34;14.13;;;12.45;;
22715;SDS011;11525;51.152;4.456;2022-09-13T16:51:01;15.75;;;14.15;;
22715;SDS011;11525;51.152;4.456;2022-09-13T16:53:31;15.88;;;13.30;;
22715;SDS011;11525;51.152;4.456;2022-09-13T16:56:08;17.42;;;14.65;;
22715;SDS011;11525;51.152;4.456;2022-09-13T16:58:39;16.38;;;14.63;;
22715;SDS011;11525;51.152;4.456;2022-09-13T17:01:07;18.90;;;14.55;;
22715;SDS011;11525;51.152;4.456;2022-09-13T17:03:34;16.20;;;14.57;;
22715;SDS011;11525;51.152;4.456;2022-09-13T17:06:02;14.82;;;12.07;;
22715;SDS011;11525;51.152;4.456;2022-09-13T17:08:30;18.90;;;13.13;;
22715;SDS011;11525;51.152;4.456;2022-09-13T17:10:57;13.40;;;12.00;;
22715;SDS011;11525;51.152;4.456;2022-09-13T17:13:23;12.23;;;11.10;;
22715;SDS011;11525;51.152;4.456;2022-09-13T17:15:50;14.07;;;12.57;;
22715;SDS011;11525;51.152;4.456;2022-09-13T17:18:16;15.00;;;11.15;;
22715;SDS011;11525;51.152;4.456;2022-09-13T17:20:45;11.48;;;9.30;;
22715;SDS011;11525;51.152;4.456;2022-09-13T17:23:13;13.30;;;8.88;;
22715;SDS011;11525;51.152;4.456;2022-09-13T17:25:41;9.48;;;8.38;;
22715;SDS011;11525;51.152;4.456;2022-09-13T17:28:13;11.65;;;7.93;;
22715;SDS011;11525;51.152;4.456;2022-09-13T17:30:40;9.57;;;8.30;;
22715;SDS011;11525;51.152;4.456;2022-09-13T17:33:07;15.85;;;8.68;;
22715;SDS011;11525;51.152;4.456;2022-09-13T17:35:34;14.65;;;8.75;;
22715;SDS011;11525;51.152;4.456;2022-09-13T17:38:00;10.90;;;8.90;;
22715;SDS011;11525;51.152;4.456;2022-09-13T17:40:27;13.98;;;8.95;;
22715;SDS011;11525;51.152;4.456;2022-09-13T17:42:54;17.73;;;7.85;;
22715;SDS011;11525;51.152;4.456;2022-09-13T17:45:20;10.20;;;7.30;;
22715;SDS011;11525;51.152;4.456;2022-09-13T17:47:47;11.43;;;6.97;;
22715;SDS011;11525;51.152;4.456;2022-09-13T17:50:15;7.45;;;6.47;;
22715;SDS011;11525;51.152;4.456;2022-09-13T17:52:41;10.30;;;6.38;;
22715;SDS011;11525;51.152;4.456;2022-09-13T17:55:07;13.05;;;6.78;;
22715;SDS011;11525;51.152;4.456;2022-09-13T17:57:33;14.05;;;7.60;;
22715;SDS011;11525;51.152;4.456;2022-09-13T17:59:59;7.85;;;6.05;;
22715;SDS011;11525;51.152;4.456;2022-09-13T18:02:25;11.48;;;6.80;;
22715;SDS011;11525;51.152;4.456;2022-09-13T18:04:51;12.57;;;6.90;;
22715;SDS011;11525;51.152;4.456;2022-09-13T18:07:18;9.57;;;6.57;;
22715;SDS011;11525;51.152;4.456;2022-09-13T18:09:44;11.90;;;6.57;;
22715;SDS011;11525;51.152;4.456;2022-09-13T18:12:11;10.27;;;6.45;;
22715;SDS011;11525;51.152;4.456;2022-09-13T18:14:37;12.00;;;6.93;;
22715;SDS011;11525;51.152;4.456;2022-09-13T18:17:04;9.70;;;6.70;;
22715;SDS011;11525;51.152;4.456;2022-09-13T18:19:37;10.18;;;7.03;;
22715;SDS011;11525;51.152;4.456;2022-09-13T18:22:04;11.15;;;6.15;;
22715;SDS011;11525;51.152;4.456;2022-09-13T18:24:31;8.43;;;5.45;;
22715;SDS011;11525;51.152;4.456;2022-09-13T18:26:58;9.88;;;6.15;;
22715;SDS011;11525;51.152;4.456;2022-09-13T18:29:24;10.68;;;6.05;;
22715;SDS011;11525;51.152;4.456;2022-09-13T18:31:52;9.60;;;6.07;;
22715;SDS011;11525;51.152;4.456;2022-09-13T18:34:18;10.10;;;5.72;;
22715;SDS011;11525;51.152;4.456;2022-09-13T18:36:44;9.45;;;5.45;;